sensor_id;sensor_type;location;lat;lon;timestamp;pressure;altitude;pressure_sealevel;temperature;humidity
7109;BME280;29079;41.930;25.558;2022-11-11T00:01:51;100749.06;;;6.41;78.28
7109;BME280;29079;41.930;25.558;2022-11-11T00:04:21;100750.31;;;6.51;78.74
7109;BME280;29079;41.930;25.558;2022-11-11T00:06:50;100750.00;;;6.40;78.47
7109;BME280;29079;41.930;25.558;2022-11-11T00:09:21;100744.22;;;6.32;78.62
7109;BME280;29079;41.930;25.558;2022-11-11T00:11:51;100755.56;;;6.18;79.27
7109;BME280;29079;41.930;25.558;2022-11-11T00:14:21;100752.06;;;6.35;78.72
7109;BME280;29079;41.930;25.558;2022-11-11T00:16:53;100749.09;;;6.23;78.88
7109;BME280;29079;41.930;25.558;2022-11-11T00:19:40;100745.81;;;6.18;79.19
7109;BME280;29079;41.930;25.558;2022-11-11T00:22:27;100744.25;;;6.14;79.02
7109;BME280;29079;41.930;25.558;2022-11-11T00:25:14;100747.44;;;6.03;79.81
7109;BME280;29079;41.930;25.558;2022-11-11T00:27:45;100745.16;;;5.96;80.25
7109;BME280;29079;41.930;25.558;2022-11-11T00:30:15;100743.50;;;5.93;79.94
7109;BME280;29079;41.930;25.558;2022-11-11T00:32:45;100745.56;;;6.05;79.95
7109;BME280;29079;41.930;25.558;2022-11-11T00:35:15;100742.31;;;6.18;79.67
7109;BME280;29079;41.930;25.558;2022-11-11T00:38:05;100736.44;;;6.11;79.77
7109;BME280;29079;41.930;25.558;2022-11-11T00:40:35;100731.16;;;6.11;79.37
7109;BME280;29079;41.930;25.558;2022-11-11T00:43:05;100729.66;;;6.23;78.96
7109;BME280;29079;41.930;25.558;2022-11-11T00:45:35;100733.25;;;6.22;79.12
7109;BME280;29079;41.930;25.558;2022-11-11T00:48:07;100730.91;;;6.16;79.47
7109;BME280;29079;41.930;25.558;2022-11-11T00:50:54;100731.53;;;6.21;78.97
7109;BME280;29079;41.930;25.558;2022-11-11T00:53:30;100733.88;;;6.27;78.79
7109;BME280;29079;41.930;25.558;2022-11-11T00:56:02;100731.28;;;6.25;78.69
7109;BME280;29079;41.930;25.558;2022-11-11T00:58:32;100726.78;;;6.27;78.28
7109;BME280;29079;41.930;25.558;2022-11-11T01:01:02;100726.47;;;5.99;79.33
7109;BME280;29079;41.930;25.558;2022-11-11T01:03:32;100729.66;;;6.05;79.74
7109;BME280;29079;41.930;25.558;2022-11-11T01:06:02;100717.53;;;6.01;78.94
7109;BME280;29079;41.930;25.558;2022-11-11T01:08:32;100720.78;;;6.06;79.45
7109;BME280;29079;41.930;25.558;2022-11-11T01:11:13;100724.06;;;6.12;78.86
7109;BME280;29079;41.930;25.558;2022-11-11T01:13:43;100720.31;;;6.16;78.96
7109;BME280;29079;41.930;25.558;2022-11-11T01:16:13;100720.78;;;6.06;79.26
7109;BME280;29079;41.930;25.558;2022-11-11T01:18:45;100730.91;;;5.98;78.84
7109;BME280;29079;41.930;25.558;2022-11-11T01:21:16;100726.06;;;5.89;79.20
7109;BME280;29079;41.930;25.558;2022-11-11T01:23:46;100719.22;;;6.02;79.05
7109;BME280;29079;41.930;25.558;2022-11-11T01:26:17;100719.66;;;5.93;79.44
7109;BME280;29079;41.930;25.558;2022-11-11T01:28:52;100723.88;;;5.80;79.36
7109;BME280;29079;41.930;25.558;2022-11-11T01:31:23;100714.81;;;5.84;79.69
7109;BME280;29079;41.930;25.558;2022-11-11T01:33:54;100711.72;;;5.75;80.63
7109;BME280;29079;41.930;25.558;2022-11-11T01:36:25;100722.22;;;5.77;79.28
7109;BME280;29079;41.930;25.558;2022-11-11T01:38:55;100720.50;;;5.76;80.38
7109;BME280;29079;41.930;25.558;2022-11-11T01:41:26;100715.84;;;5.81;79.54
7109;BME280;29079;41.930;25.558;2022-11-11T01:44:06;100711.06;;;5.88;79.81
7109;BME280;29079;41.930;25.558;2022-11-11T01:46:43;100718.81;;;5.92;79.04
7109;BME280;29079;41.930;25.558;2022-11-11T01:49:18;100716.69;;;5.82;80.11
7109;BME280;29079;41.930;25.558;2022-11-11T01:51:52;100718.41;;;5.83;80.16
7109;BME280;29079;41.930;25.558;2022-11-11T01:54:25;100711.78;;;5.91;79.22
7109;BME280;29079;41.930;25.558;2022-11-11T01:56:58;100710.00;;;5.92;79.86
7109;BME280;29079;41.930;25.558;2022-11-11T01:59:30;100712.81;;;5.89;79.61
7109;BME280;29079;41.930;25.558;2022-11-11T02:02:01;100708.97;;;5.77;80.27
7109;BME280;29079;41.930;25.558;2022-11-11T02:04:35;100714.03;;;5.64;80.89
7109;BME280;29079;41.930;25.558;2022-11-11T02:07:23;100713.28;;;5.80;79.96
7109;BME280;29079;41.930;25.558;2022-11-11T02:09:54;100718.09;;;5.89;79.58
7109;BME280;29079;41.930;25.558;2022-11-11T02:12:25;100710.91;;;5.91;79.65
7109;BME280;29079;41.930;25.558;2022-11-11T02:15:13;100713.38;;;5.96;79.01
7109;BME280;29079;41.930;25.558;2022-11-11T02:17:42;100711.88;;;5.90;79.54
7109;BME280;29079;41.930;25.558;2022-11-11T02:20:16;100709.56;;;5.65;80.37
7109;BME280;29079;41.930;25.558;2022-11-11T02:22:48;100709.97;;;5.57;80.37
7109;BME280;29079;41.930;25.558;2022-11-11T02:25:22;100706.72;;;5.69;79.78
7109;BME280;29079;41.930;25.558;2022-11-11T02:27:53;100717.25;;;5.71;79.55
7109;BME280;29079;41.930;25.558;2022-11-11T02:30:26;100716.44;;;5.69;79.98
7109;BME280;29079;41.930;25.558;2022-11-11T02:32:56;100710.28;;;5.68;80.15
7109;BME280;29079;41.930;25.558;2022-11-11T02:35:28;100708.03;;;5.61;79.71
7109;BME280;29079;41.930;25.558;2022-11-11T02:37:58;100718.56;;;5.62;80.51
7109;BME280;29079;41.930;25.558;2022-11-11T02:40:32;100710.88;;;5.56;80.64
7109;BME280;29079;41.930;25.558;2022-11-11T02:43:03;100716.97;;;5.58;80.72
7109;BME280;29079;41.930;25.558;2022-11-11T02:45:33;100716.91;;;5.60;79.91
7109;BME280;29079;41.930;25.558;2022-11-11T02:48:03;100715.97;;;5.61;80.45
7109;BME280;29079;41.930;25.558;2022-11-11T02:50:32;100705.28;;;5.45;80.30
7109;BME280;29079;41.930;25.558;2022-11-11T02:53:02;100711.28;;;5.48;80.66
7109;BME280;29079;41.930;25.558;2022-11-11T02:55:33;100707.63;;;5.51;80.61
7109;BME280;29079;41.930;25.558;2022-11-11T02:58:03;100706.97;;;5.46;80.52
7109;BME280;29079;41.930;25.558;2022-11-11T03:00:32;100710.13;;;5.54;79.66
7109;BME280;29079;41.930;25.558;2022-11-11T03:03:02;100715.19;;;5.58;79.57
7109;BME280;29079;41.930;25.558;2022-11-11T03:05:32;100710.88;;;5.56;79.49
7109;BME280;29079;41.930;25.558;2022-11-11T03:08:02;100709.63;;;5.46;80.08
7109;BME280;29079;41.930;25.558;2022-11-11T03:10:33;100715.25;;;5.57;79.61
7109;BME280;29079;41.930;25.558;2022-11-11T03:13:03;100714.50;;;5.55;79.78
7109;BME280;29079;41.930;25.558;2022-11-11T03:15:34;100721.47;;;5.56;80.01
7109;BME280;29079;41.930;25.558;2022-11-11T03:18:04;100721.31;;;5.59;80.36
7109;BME280;29079;41.930;25.558;2022-11-11T03:20:32;100719.22;;;5.48;80.16
7109;BME280;29079;41.930;25.558;2022-11-11T03:23:19;100725.44;;;5.47;80.35
7109;BME280;29079;41.930;25.558;2022-11-11T03:25:51;100732.84;;;5.40;79.76
7109;BME280;29079;41.930;25.558;2022-11-11T03:28:25;100739.81;;;5.41;79.92
7109;BME280;29079;41.930;25.558;2022-11-11T03:30:55;100747.00;;;5.39;79.66
7109;BME280;29079;41.930;25.558;2022-11-11T03:33:31;100738.06;;;5.23;80.39
7109;BME280;29079;41.930;25.558;2022-11-11T03:36:00;100733.84;;;5.38;80.09
7109;BME280;29079;41.930;25.558;2022-11-11T03:38:30;100733.25;;;5.31;79.68
7109;BME280;29079;41.930;25.558;2022-11-11T03:41:00;100742.63;;;5.19;80.22
7109;BME280;29079;41.930;25.558;2022-11-11T03:43:30;100735.63;;;5.37;79.90
7109;BME280;29079;41.930;25.558;2022-11-11T03:46:00;100727.38;;;5.44;80.10
7109;BME280;29079;41.930;25.558;2022-11-11T03:48:32;100732.38;;;5.50;79.16
7109;BME280;29079;41.930;25.558;2022-11-11T03:51:01;100722.34;;;5.56;79.69
7109;BME280;29079;41.930;25.558;2022-11-11T03:53:31;100723.41;;;5.35;79.88
7109;BME280;29079;41.930;25.558;2022-11-11T03:56:02;100726.16;;;5.51;79.63
7109;BME280;29079;41.930;25.558;2022-11-11T03:58:32;100723.94;;;5.61;79.61
7109;BME280;29079;41.930;25.558;2022-11-11T04:01:01;100731.31;;;5.54;79.86
7109;BME280;29079;41.930;25.558;2022-11-11T04:03:51;100733.09;;;5.53;79.43
7109;BME280;29079;41.930;25.558;2022-11-11T04:06:38;100730.97;;;5.43;78.93
7109;BME280;29079;41.930;25.558;2022-11-11T04:09:25;100727.19;;;5.29;79.47
7109;BME280;29079;41.930;25.558;2022-11-11T04:12:14;100729.38;;;5.38;79.54
7109;BME280;29079;41.930;25.558;2022-11-11T04:14:44;100719.88;;;5.34;79.67
7109;BME280;29079;41.930;25.558;2022-11-11T04:17:31;100722.09;;;5.44;79.67
7109;BME280;29079;41.930;25.558;2022-11-11T04:20:00;100725.16;;;5.53;79.18
7109;BME280;29079;41.930;25.558;2022-11-11T04:22:47;100728.97;;;5.48;78.91
7109;BME280;29079;41.930;25.558;2022-11-11T04:25:20;100734.59;;;5.40;78.86
7109;BME280;29079;41.930;25.558;2022-11-11T04:28:10;100736.63;;;5.35;79.06
7109;BME280;29079;41.930;25.558;2022-11-11T04:30:57;100731.41;;;5.33;79.04
7109;BME280;29079;41.930;25.558;2022-11-11T04:33:26;100737.75;;;5.48;79.05
7109;BME280;29079;41.930;25.558;2022-11-11T04:35:55;100729.72;;;5.50;78.54
7109;BME280;29079;41.930;25.558;2022-11-11T04:38:24;100736.81;;;5.49;78.47
7109;BME280;29079;41.930;25.558;2022-11-11T04:41:23;100732.09;;;5.37;79.07
7109;BME280;29079;41.930;25.558;2022-11-11T04:44:14;100744.78;;;5.30;79.62
7109;BME280;29079;41.930;25.558;2022-11-11T04:47:01;100738.78;;;5.27;79.53
7109;BME280;29079;41.930;25.558;2022-11-11T04:49:30;100736.34;;;5.22;79.51
7109;BME280;29079;41.930;25.558;2022-11-11T04:52:00;100731.25;;;5.36;79.14
7109;BME280;29079;41.930;25.558;2022-11-11T04:54:47;100735.72;;;5.36;79.05
7109;BME280;29079;41.930;25.558;2022-11-11T04:57:33;100745.34;;;5.37;79.08
7109;BME280;29079;41.930;25.558;2022-11-11T05:00:05;100745.34;;;5.37;78.86
7109;BME280;29079;41.930;25.558;2022-11-11T05:02:35;100746.16;;;5.39;78.91
7109;BME280;29079;41.930;25.558;2022-11-11T05:05:22;100750.00;;;5.51;78.99
7109;BME280;29079;41.930;25.558;2022-11-11T05:07:52;100751.84;;;5.30;78.96
7109;BME280;29079;41.930;25.558;2022-11-11T05:10:39;100756.78;;;5.18;79.38
7109;BME280;29079;41.930;25.558;2022-11-11T05:13:09;100758.59;;;5.18;79.65
7109;BME280;29079;41.930;25.558;2022-11-11T05:15:59;100773.03;;;5.11;79.67
7109;BME280;29079;41.930;25.558;2022-11-11T05:18:46;100773.84;;;5.13;79.77
7109;BME280;29079;41.930;25.558;2022-11-11T05:21:33;100772.69;;;5.37;79.16
7109;BME280;29079;41.930;25.558;2022-11-11T05:24:02;100769.97;;;5.39;79.00
7109;BME280;29079;41.930;25.558;2022-11-11T05:26:50;100782.94;;;5.26;80.10
7109;BME280;29079;41.930;25.558;2022-11-11T05:29:19;100781.19;;;5.44;79.50
7109;BME280;29079;41.930;25.558;2022-11-11T05:31:51;100776.88;;;5.41;79.42
7109;BME280;29079;41.930;25.558;2022-11-11T05:34:21;100785.56;;;5.45;79.69
7109;BME280;29079;41.930;25.558;2022-11-11T05:36:51;100790.06;;;5.43;79.49
7109;BME280;29079;41.930;25.558;2022-11-11T05:39:20;100795.31;;;5.45;79.86
7109;BME280;29079;41.930;25.558;2022-11-11T05:41:50;100788.63;;;5.55;79.21
7109;BME280;29079;41.930;25.558;2022-11-11T05:44:19;100788.47;;;5.58;79.55
7109;BME280;29079;41.930;25.558;2022-11-11T05:46:49;100789.59;;;5.71;78.94
7109;BME280;29079;41.930;25.558;2022-11-11T05:49:20;100796.63;;;5.72;79.07
7109;BME280;29079;41.930;25.558;2022-11-11T05:51:50;100803.22;;;5.64;80.03
7109;BME280;29079;41.930;25.558;2022-11-11T05:54:22;100805.28;;;5.57;80.24
7109;BME280;29079;41.930;25.558;2022-11-11T05:56:52;100794.91;;;5.71;79.40
7109;BME280;29079;41.930;25.558;2022-11-11T05:59:22;100802.53;;;5.78;78.99
7109;BME280;29079;41.930;25.558;2022-11-11T06:01:51;100804.97;;;5.82;79.26
7109;BME280;29079;41.930;25.558;2022-11-11T06:04:23;100803.50;;;5.77;79.19
7109;BME280;29079;41.930;25.558;2022-11-11T06:06:53;100807.34;;;5.88;79.48
7109;BME280;29079;41.930;25.558;2022-11-11T06:09:23;100811.34;;;5.97;79.34
7109;BME280;29079;41.930;25.558;2022-11-11T06:11:52;100817.91;;;6.07;79.07
7109;BME280;29079;41.930;25.558;2022-11-11T06:14:22;100814.88;;;6.15;79.33
7109;BME280;29079;41.930;25.558;2022-11-11T06:16:52;100820.75;;;6.22;78.58
7109;BME280;29079;41.930;25.558;2022-11-11T06:19:23;100825.72;;;6.28;79.20
7109;BME280;29079;41.930;25.558;2022-11-11T06:21:52;100830.63;;;6.36;78.50
7109;BME280;29079;41.930;25.558;2022-11-11T06:24:29;100829.72;;;6.37;79.46
7109;BME280;29079;41.930;25.558;2022-11-11T06:26:58;100829.63;;;6.38;78.96
7109;BME280;29079;41.930;25.558;2022-11-11T06:29:27;100821.84;;;6.53;78.54
7109;BME280;29079;41.930;25.558;2022-11-11T06:31:57;100828.53;;;6.60;79.08
7109;BME280;29079;41.930;25.558;2022-11-11T06:34:28;100823.88;;;6.65;78.71
7109;BME280;29079;41.930;25.558;2022-11-11T06:36:57;100823.91;;;6.63;78.92
7109;BME280;29079;41.930;25.558;2022-11-11T06:39:28;100835.41;;;6.64;78.50
7109;BME280;29079;41.930;25.558;2022-11-11T06:41:58;100835.50;;;6.62;78.41
7109;BME280;29079;41.930;25.558;2022-11-11T06:44:28;100844.94;;;6.68;78.49
7109;BME280;29079;41.930;25.558;2022-11-11T06:46:57;100836.31;;;6.80;78.87
7109;BME280;29079;41.930;25.558;2022-11-11T06:49:28;100836.22;;;6.82;78.40
7109;BME280;29079;41.930;25.558;2022-11-11T06:51:57;100830.28;;;6.94;77.76
7109;BME280;29079;41.930;25.558;2022-11-11T06:54:27;100833.28;;;7.04;77.57
7109;BME280;29079;41.930;25.558;2022-11-11T06:56:57;100835.47;;;7.13;77.76
7109;BME280;29079;41.930;25.558;2022-11-11T06:59:29;100835.91;;;7.22;77.85
7109;BME280;29079;41.930;25.558;2022-11-11T07:01:58;100835.13;;;7.20;78.65
7109;BME280;29079;41.930;25.558;2022-11-11T07:04:29;100837.53;;;7.24;78.17
7109;BME280;29079;41.930;25.558;2022-11-11T07:06:59;100828.31;;;7.31;78.80
7109;BME280;29079;41.930;25.558;2022-11-11T07:09:28;100832.16;;;7.42;77.80
7109;BME280;29079;41.930;25.558;2022-11-11T07:11:59;100840.41;;;7.53;77.84
7109;BME280;29079;41.930;25.558;2022-11-11T07:14:29;100831.06;;;7.62;77.30
7109;BME280;29079;41.930;25.558;2022-11-11T07:16:59;100830.56;;;7.71;76.89
7109;BME280;29079;41.930;25.558;2022-11-11T07:19:35;100842.63;;;7.77;76.56
7109;BME280;29079;41.930;25.558;2022-11-11T07:22:04;100840.41;;;7.85;77.12
7109;BME280;29079;41.930;25.558;2022-11-11T07:24:34;100843.31;;;7.96;76.79
7109;BME280;29079;41.930;25.558;2022-11-11T07:27:04;100844.59;;;8.05;76.40
7109;BME280;29079;41.930;25.558;2022-11-11T07:29:33;100845.03;;;8.13;76.73
7109;BME280;29079;41.930;25.558;2022-11-11T07:32:03;100849.97;;;8.19;76.48
7109;BME280;29079;41.930;25.558;2022-11-11T07:34:34;100853.22;;;8.25;76.03
7109;BME280;29079;41.930;25.558;2022-11-11T07:37:04;100847.56;;;8.31;76.81
7109;BME280;29079;41.930;25.558;2022-11-11T07:39:33;100845.47;;;8.36;76.34
7109;BME280;29079;41.930;25.558;2022-11-11T07:42:03;100860.13;;;8.43;76.15
7109;BME280;29079;41.930;25.558;2022-11-11T07:44:32;100842.44;;;8.58;76.47
7109;BME280;29079;41.930;25.558;2022-11-11T07:47:02;100849.59;;;8.72;75.55
7109;BME280;29079;41.930;25.558;2022-11-11T07:49:32;100854.75;;;8.89;75.51
7109;BME280;29079;41.930;25.558;2022-11-11T07:52:03;100847.72;;;9.03;75.15
7109;BME280;29079;41.930;25.558;2022-11-11T07:54:33;100837.97;;;9.18;74.58
7109;BME280;29079;41.930;25.558;2022-11-11T07:57:02;100842.41;;;9.32;74.22
7109;BME280;29079;41.930;25.558;2022-11-11T07:59:32;100848.66;;;9.45;74.32
7109;BME280;29079;41.930;25.558;2022-11-11T08:02:02;100842.28;;;9.62;73.94
7109;BME280;29079;41.930;25.558;2022-11-11T08:04:31;100844.81;;;9.78;73.52
7109;BME280;29079;41.930;25.558;2022-11-11T08:07:02;100827.84;;;9.93;73.46
7109;BME280;29079;41.930;25.558;2022-11-11T08:09:32;100839.94;;;10.12;73.57
7109;BME280;29079;41.930;25.558;2022-11-11T08:12:03;100829.97;;;10.28;73.73
7109;BME280;29079;41.930;25.558;2022-11-11T08:14:51;100828.03;;;10.58;73.92
7109;BME280;29079;41.930;25.558;2022-11-11T08:17:23;100835.09;;;10.85;73.59
7109;BME280;29079;41.930;25.558;2022-11-11T08:19:52;100836.38;;;11.05;73.01
7109;BME280;29079;41.930;25.558;2022-11-11T08:22:23;100841.81;;;11.16;72.83
7109;BME280;29079;41.930;25.558;2022-11-11T08:24:53;100839.69;;;11.21;72.38
7109;BME280;29079;41.930;25.558;2022-11-11T08:27:32;100840.53;;;11.35;72.11
7109;BME280;29079;41.930;25.558;2022-11-11T08:30:03;100835.47;;;11.43;72.02
7109;BME280;29079;41.930;25.558;2022-11-11T08:32:33;100830.06;;;11.31;71.96
7109;BME280;29079;41.930;25.558;2022-11-11T08:35:03;100835.91;;;11.37;72.17
7109;BME280;29079;41.930;25.558;2022-11-11T08:37:34;100840.41;;;11.36;72.30
7109;BME280;29079;41.930;25.558;2022-11-11T08:40:04;100842.13;;;11.37;72.22
7109;BME280;29079;41.930;25.558;2022-11-11T08:42:34;100842.44;;;11.32;72.67
7109;BME280;29079;41.930;25.558;2022-11-11T08:45:04;100840.63;;;11.46;72.48
7109;BME280;29079;41.930;25.558;2022-11-11T08:47:33;100842.72;;;11.66;71.84
7109;BME280;29079;41.930;25.558;2022-11-11T08:50:05;100842.59;;;11.68;71.96
7109;BME280;29079;41.930;25.558;2022-11-11T08:52:36;100844.47;;;11.79;71.80
7109;BME280;29079;41.930;25.558;2022-11-11T08:55:06;100838.34;;;11.90;71.52
7109;BME280;29079;41.930;25.558;2022-11-11T08:57:36;100839.66;;;11.84;71.54
7109;BME280;29079;41.930;25.558;2022-11-11T09:00:06;100846.19;;;11.80;71.57
7109;BME280;29079;41.930;25.558;2022-11-11T09:02:36;100844.13;;;11.83;71.48
7109;BME280;29079;41.930;25.558;2022-11-11T09:05:06;100849.91;;;11.90;71.29
7109;BME280;29079;41.930;25.558;2022-11-11T09:07:37;100838.59;;;11.87;71.36
7109;BME280;29079;41.930;25.558;2022-11-11T09:10:07;100836.63;;;11.89;71.31
7109;BME280;29079;41.930;25.558;2022-11-11T09:12:37;100844.44;;;11.92;71.53
7109;BME280;29079;41.930;25.558;2022-11-11T09:15:08;100843.06;;;11.99;70.97
7109;BME280;29079;41.930;25.558;2022-11-11T09:17:38;100844.41;;;12.05;70.90
7109;BME280;29079;41.930;25.558;2022-11-11T09:20:08;100826.66;;;12.04;71.10
7109;BME280;29079;41.930;25.558;2022-11-11T09:22:42;100832.75;;;12.06;71.02
7109;BME280;29079;41.930;25.558;2022-11-11T09:25:12;100829.31;;;12.04;70.96
7109;BME280;29079;41.930;25.558;2022-11-11T09:27:42;100833.38;;;12.09;70.83
7109;BME280;29079;41.930;25.558;2022-11-11T09:30:11;100846.38;;;12.02;71.00
7109;BME280;29079;41.930;25.558;2022-11-11T09:32:41;100830.31;;;12.02;71.16
7109;BME280;29079;41.930;25.558;2022-11-11T09:35:11;100829.31;;;12.04;71.25
7109;BME280;29079;41.930;25.558;2022-11-11T09:37:42;100830.31;;;12.02;70.91
7109;BME280;29079;41.930;25.558;2022-11-11T09:40:21;100828.94;;;11.97;71.38
7109;BME280;29079;41.930;25.558;2022-11-11T09:42:55;100837.34;;;12.04;71.10
7109;BME280;29079;41.930;25.558;2022-11-11T09:45:27;100828.06;;;11.96;71.23
7109;BME280;29079;41.930;25.558;2022-11-11T09:48:02;100822.84;;;11.95;71.20
7109;BME280;29079;41.930;25.558;2022-11-11T09:50:38;100812.03;;;11.96;71.19
7109;BME280;29079;41.930;25.558;2022-11-11T09:53:12;100811.38;;;11.93;70.96
7109;BME280;29079;41.930;25.558;2022-11-11T09:55:46;100811.38;;;11.93;70.78
7109;BME280;29079;41.930;25.558;2022-11-11T09:58:18;100816.41;;;11.97;70.99
7109;BME280;29079;41.930;25.558;2022-11-11T10:00:50;100815.47;;;11.98;70.99
7109;BME280;29079;41.930;25.558;2022-11-11T10:03:24;100822.50;;;11.99;70.87
7109;BME280;29079;41.930;25.558;2022-11-11T10:05:59;100826.50;;;11.94;70.90
7109;BME280;29079;41.930;25.558;2022-11-11T10:08:34;100818.84;;;12.00;70.88
7109;BME280;29079;41.930;25.558;2022-11-11T10:11:10;100811.06;;;11.97;70.86
7109;BME280;29079;41.930;25.558;2022-11-11T10:13:42;100806.91;;;11.93;70.85
7109;BME280;29079;41.930;25.558;2022-11-11T10:16:14;100810.34;;;11.95;71.06
7109;BME280;29079;41.930;25.558;2022-11-11T10:18:52;100809.13;;;11.99;70.80
7109;BME280;29079;41.930;25.558;2022-11-11T10:21:25;100811.59;;;12.02;71.02
7109;BME280;29079;41.930;25.558;2022-11-11T10:24:24;100803.69;;;12.01;71.10
7109;BME280;29079;41.930;25.558;2022-11-11T10:26:56;100812.31;;;12.05;71.02
7109;BME280;29079;41.930;25.558;2022-11-11T10:29:29;100807.56;;;12.08;70.98
7109;BME280;29079;41.930;25.558;2022-11-11T10:32:02;100815.16;;;12.14;71.07
7109;BME280;29079;41.930;25.558;2022-11-11T10:34:33;100809.69;;;12.16;70.85
7109;BME280;29079;41.930;25.558;2022-11-11T10:37:10;100814.28;;;12.14;70.89
7109;BME280;29079;41.930;25.558;2022-11-11T10:39:47;100814.28;;;12.14;71.10
7109;BME280;29079;41.930;25.558;2022-11-11T10:42:18;100820.41;;;12.16;70.99
7109;BME280;29079;41.930;25.558;2022-11-11T10:44:48;100813.56;;;12.12;71.33
7109;BME280;29079;41.930;25.558;2022-11-11T10:47:21;100803.38;;;12.17;71.42
7109;BME280;29079;41.930;25.558;2022-11-11T10:49:57;100807.50;;;12.21;71.01
7109;BME280;29079;41.930;25.558;2022-11-11T10:52:31;100801.19;;;12.22;71.23
7109;BME280;29079;41.930;25.558;2022-11-11T10:55:04;100805.81;;;12.20;71.36
7109;BME280;29079;41.930;25.558;2022-11-11T10:57:36;100808.81;;;12.15;71.45
7109;BME280;29079;41.930;25.558;2022-11-11T11:00:07;100795.97;;;12.21;71.60
7109;BME280;29079;41.930;25.558;2022-11-11T11:02:39;100804.94;;;12.19;71.49
7109;BME280;29079;41.930;25.558;2022-11-11T11:05:12;100805.41;;;12.13;71.96
7109;BME280;29079;41.930;25.558;2022-11-11T11:07:42;100806.50;;;12.11;72.19
7109;BME280;29079;41.930;25.558;2022-11-11T11:10:17;100801.91;;;12.13;71.98
7109;BME280;29079;41.930;25.558;2022-11-11T11:12:50;100801.63;;;12.05;72.18
7109;BME280;29079;41.930;25.558;2022-11-11T11:15:22;100789.94;;;12.06;72.40
7109;BME280;29079;41.930;25.558;2022-11-11T11:17:54;100789.44;;;12.00;72.55
7109;BME280;29079;41.930;25.558;2022-11-11T11:20:26;100790.63;;;11.96;72.57
7109;BME280;29079;41.930;25.558;2022-11-11T11:22:56;100793.94;;;12.00;72.85
7109;BME280;29079;41.930;25.558;2022-11-11T11:25:29;100798.31;;;12.01;72.85
7109;BME280;29079;41.930;25.558;2022-11-11T11:28:04;100796.63;;;12.00;73.00
7109;BME280;29079;41.930;25.558;2022-11-11T11:30:34;100796.84;;;11.97;73.58
7109;BME280;29079;41.930;25.558;2022-11-11T11:33:04;100786.47;;;11.92;73.45
7109;BME280;29079;41.930;25.558;2022-11-11T11:35:35;100789.34;;;11.89;73.62
7109;BME280;29079;41.930;25.558;2022-11-11T11:38:05;100793.00;;;11.88;73.67
7109;BME280;29079;41.930;25.558;2022-11-11T11:40:47;100788.84;;;11.84;73.84
7109;BME280;29079;41.930;25.558;2022-11-11T11:43:23;100785.53;;;11.80;74.29
7109;BME280;29079;41.930;25.558;2022-11-11T11:45:54;100784.56;;;11.81;74.24
7109;BME280;29079;41.930;25.558;2022-11-11T11:48:27;100784.91;;;11.77;74.43
7109;BME280;29079;41.930;25.558;2022-11-11T11:51:04;100771.19;;;11.81;74.39
7109;BME280;29079;41.930;25.558;2022-11-11T11:53:40;100778.75;;;11.88;73.95
7109;BME280;29079;41.930;25.558;2022-11-11T11:56:17;100775.13;;;11.89;74.41
7109;BME280;29079;41.930;25.558;2022-11-11T11:58:52;100778.88;;;11.86;73.92
7109;BME280;29079;41.930;25.558;2022-11-11T12:01:26;100780.06;;;11.82;74.55
7109;BME280;29079;41.930;25.558;2022-11-11T12:06:48;100776.94;;;11.88;74.95
7109;BME280;29079;41.930;25.558;2022-11-11T12:09:23;100781.53;;;11.86;75.14
7109;BME280;29079;41.930;25.558;2022-11-11T12:11:58;100782.31;;;11.88;75.63
7109;BME280;29079;41.930;25.558;2022-11-11T12:14:36;100789.44;;;11.88;76.09
7109;BME280;29079;41.930;25.558;2022-11-11T12:17:14;100788.69;;;11.98;77.18
7109;BME280;29079;41.930;25.558;2022-11-11T12:19:49;100791.25;;;12.00;77.50
7109;BME280;29079;41.930;25.558;2022-11-11T12:22:28;100793.19;;;11.98;77.00
7109;BME280;29079;41.930;25.558;2022-11-11T12:25:11;100792.34;;;11.97;77.79
7109;BME280;29079;41.930;25.558;2022-11-11T12:27:51;100786.25;;;11.95;77.84
7109;BME280;29079;41.930;25.558;2022-11-11T12:30:24;100790.94;;;11.92;77.99
7109;BME280;29079;41.930;25.558;2022-11-11T12:33:00;100798.34;;;11.88;77.95
7109;BME280;29079;41.930;25.558;2022-11-11T12:35:45;100796.63;;;11.87;79.21
7109;BME280;29079;41.930;25.558;2022-11-11T12:38:20;100803.69;;;11.88;79.73
7109;BME280;29079;41.930;25.558;2022-11-11T12:40:55;100800.50;;;11.83;80.00
7109;BME280;29079;41.930;25.558;2022-11-11T12:43:29;100808.97;;;11.77;80.75
7109;BME280;29079;41.930;25.558;2022-11-11T12:46:04;100814.56;;;11.74;81.17
7109;BME280;29079;41.930;25.558;2022-11-11T12:48:49;100807.59;;;11.71;82.22
7109;BME280;29079;41.930;25.558;2022-11-11T12:51:27;100815.97;;;11.66;82.81
7109;BME280;29079;41.930;25.558;2022-11-11T12:54:01;100813.75;;;11.60;83.39
7109;BME280;29079;41.930;25.558;2022-11-11T12:56:35;100815.66;;;11.58;84.35
7109;BME280;29079;41.930;25.558;2022-11-11T12:59:12;100819.88;;;11.49;84.40
7109;BME280;29079;41.930;25.558;2022-11-11T13:01:49;100820.50;;;11.53;85.69
7109;BME280;29079;41.930;25.558;2022-11-11T13:07:09;100827.75;;;11.51;87.55
7109;BME280;29079;41.930;25.558;2022-11-11T13:09:49;100822.97;;;11.43;88.76
7109;BME280;29079;41.930;25.558;2022-11-11T13:12:27;100828.56;;;11.40;89.34
7109;BME280;29079;41.930;25.558;2022-11-11T13:15:03;100833.13;;;11.38;89.47
7109;BME280;29079;41.930;25.558;2022-11-11T13:17:33;100826.28;;;11.34;89.64
7109;BME280;29079;41.930;25.558;2022-11-11T13:20:04;100830.91;;;11.32;89.88
7109;BME280;29079;41.930;25.558;2022-11-11T13:22:40;100836.38;;;11.30;89.79
7109;BME280;29079;41.930;25.558;2022-11-11T13:25:12;100836.59;;;11.27;89.78
7109;BME280;29079;41.930;25.558;2022-11-11T13:27:46;100836.81;;;11.24;90.40
7109;BME280;29079;41.930;25.558;2022-11-11T13:33:10;100841.38;;;11.22;90.96
7109;BME280;29079;41.930;25.558;2022-11-11T13:35:49;100831.78;;;11.20;90.71